Time,TemperatureF,DewpointF,PressureIn,WindDirection,WindDirectionDegrees,WindSpeedMPH,WindSpeedGustMPH,Humidity,HourlyPrecipIn,Conditions,Clouds,dailyrainin,SoftwareType,DateUTC
2013-04-23 00:01:00,30.8,26.3,30.32,SW,215,0.0,0.0,83,0.00,,CLR,0.00,VWS V14.01,2013-04-23 07:01:00,
2013-04-23 00:06:00,30.5,26.0,30.31,SW,215,0.0,0.0,83,0.00,,CLR,0.00,VWS V14.01,2013-04-23 07:06:00,
2013-04-23 00:11:00,30.4,25.9,30.31,SW,215,0.0,0.0,83,0.00,,CLR,0.00,VWS V14.01,2013-04-23 07:11:00,
2013-04-23 00:16:00,30.4,25.9,30.31,SW,215,0.0,0.0,83,0.00,,CLR,0.00,VWS V14.01,2013-04-23 07:16:00,
2013-04-23 00:21:00,30.3,25.8,30.31,SW,215,0.0,0.0,83,0.00,,CLR,0.00,VWS V14.01,2013-04-23 07:21:00,
2013-04-23 00:26:00,30.1,25.6,30.31,SW,215,0.0,0.0,83,0.00,,CLR,0.00,VWS V14.01,2013-04-23 07:26:00,
2013-04-23 00:31:00,30.1,25.6,30.31,SW,215,0.0,0.0,83,0.00,,CLR,0.00,VWS V14.01,2013-04-23 07:31:00,
2013-04-23 00:36:00,30.0,25.5,30.31,SW,215,0.0,0.0,83,0.00,,CLR,0.00,VWS V14.01,2013-04-23 07:36:00,
2013-04-23 00:41:00,30.0,25.5,30.31,SW,215,0.0,0.0,83,0.00,,CLR,0.00,VWS V14.01,2013-04-23 07:41:00,
2013-04-23 00:46:00,29.7,25.8,30.31,SW,215,0.0,0.0,85,0.00,,CLR,0.00,VWS V14.01,2013-04-23 07:46:00,
2013-04-23 00:51:00,29.5,25.6,30.31,SW,215,0.0,0.0,85,0.00,,CLR,0.00,VWS V14.01,2013-04-23 07:51:00,
2013-04-23 00:56:00,29.5,25.6,30.31,SW,215,0.0,0.0,85,0.00,,CLR,0.00,VWS V14.01,2013-04-23 07:56:00,
2013-04-23 01:02:00,29.4,25.5,30.31,SW,215,0.0,0.0,85,0.00,,CLR,0.00,VWS V14.01,2013-04-23 08:02:00,
2013-04-23 01:07:00,29.4,25.5,30.32,SW,215,0.0,0.0,85,0.00,,CLR,0.00,VWS V14.01,2013-04-23 08:07:00,
2013-04-23 01:12:00,29.4,25.7,30.32,SW,215,0.0,0.0,86,0.00,,CLR,0.00,VWS V14.01,2013-04-23 08:12:00,
2013-04-23 01:17:00,29.4,25.7,30.32,SW,215,0.0,0.0,86,0.00,,CLR,0.00,VWS V14.01,2013-04-23 08:17:00,
2013-04-23 01:22:00,29.4,25.7,30.32,SW,215,0.0,0.0,86,0.00,,CLR,0.00,VWS V14.01,2013-04-23 08:22:00,
2013-04-23 01:27:00,29.4,25.7,30.32,SW,215,0.0,0.0,86,0.00,,CLR,0.00,VWS V14.01,2013-04-23 08:27:00,
2013-04-23 01:32:00,29.4,25.7,30.32,SW,215,0.0,0.0,86,0.00,,CLR,0.00,VWS V14.01,2013-04-23 08:32:00,
2013-04-23 01:37:00,29.4,25.7,30.32,SW,215,0.0,0.0,86,0.00,,CLR,0.00,VWS V14.01,2013-04-23 08:37:00,
2013-04-23 01:42:00,29.4,25.7,30.32,SW,215,0.0,0.0,86,0.00,,CLR,0.00,VWS V14.01,2013-04-23 08:42:00,
2013-04-23 01:47:00,29.4,25.7,30.31,SW,215,0.0,0.0,86,0.00,,CLR,0.00,VWS V14.01,2013-04-23 08:47:00,
2013-04-23 01:52:00,29.4,26.0,30.31,SW,215,0.0,0.0,87,0.00,,CLR,0.00,VWS V14.01,2013-04-23 08:52:00,
2013-04-23 01:57:00,29.4,26.0,30.31,SW,215,0.0,0.0,87,0.00,,CLR,0.00,VWS V14.01,2013-04-23 08:57:00,
2013-04-23 02:02:00,29.2,25.8,30.31,SW,215,0.0,0.0,87,0.00,,CLR,0.00,VWS V14.01,2013-04-23 09:02:00,
2013-04-23 02:07:00,29.2,25.8,30.31,SW,215,0.0,0.0,87,0.00,,CLR,0.00,VWS V14.01,2013-04-23 09:07:00,
2013-04-23 02:12:00,28.9,25.5,30.31,SW,215,0.0,0.0,87,0.00,,CLR,0.00,VWS V14.01,2013-04-23 09:12:00,
2013-04-23 02:17:00,28.6,25.0,30.30,SW,215,0.0,0.0,86,0.00,,CLR,0.00,VWS V14.01,2013-04-23 09:17:00,
2013-04-23 02:23:00,28.3,24.7,30.30,SW,215,0.0,0.0,86,0.00,,CLR,0.00,VWS V14.01,2013-04-23 09:23:00,
2013-04-23 02:28:00,28.0,24.6,30.30,SW,215,0.0,0.0,87,0.00,,CLR,0.00,VWS V14.01,2013-04-23 09:28:00,
2013-04-23 02:33:00,27.9,24.5,30.30,SW,215,0.0,0.0,87,0.00,,CLR,0.00,VWS V14.01,2013-04-23 09:33:00,
2013-04-23 02:38:00,27.9,24.5,30.30,SW,215,0.0,0.0,87,0.00,,CLR,0.00,VWS V14.01,2013-04-23 09:38:00,
2013-04-23 02:43:00,28.0,24.6,30.30,SW,215,0.0,0.0,87,0.00,,CLR,0.00,VWS V14.01,2013-04-23 09:43:00,
2013-04-23 02:48:00,28.2,24.8,30.30,SW,215,0.0,0.0,87,0.00,,CLR,0.00,VWS V14.01,2013-04-23 09:48:00,
2013-04-23 02:53:00,28.2,24.8,30.30,SW,215,0.0,0.0,87,0.00,,CLR,0.00,VWS V14.01,2013-04-23 09:53:00,
2013-04-23 02:58:00,28.2,24.8,30.30,SW,215,0.0,0.0,87,0.00,,CLR,0.00,VWS V14.01,2013-04-23 09:58:00,
2013-04-23 03:03:00,28.3,25.2,30.30,SW,215,0.0,0.0,88,0.00,,CLR,0.00,VWS V14.01,2013-04-23 10:03:00,
2013-04-23 03:08:00,28.3,25.2,30.30,SW,215,0.0,0.0,88,0.00,,CLR,0.00,VWS V14.01,2013-04-23 10:08:00,
2013-04-23 03:13:00,28.3,25.2,30.30,SW,215,0.0,0.0,88,0.00,,CLR,0.00,VWS V14.01,2013-04-23 10:13:00,
2013-04-23 03:18:00,28.2,25.1,30.29,SW,215,0.0,0.0,88,0.00,,CLR,0.00,VWS V14.01,2013-04-23 10:18:00,
2013-04-23 03:23:00,27.9,24.8,30.29,SW,215,0.0,0.0,88,0.00,,CLR,0.00,VWS V14.01,2013-04-23 10:23:00,
2013-04-23 03:28:00,27.7,24.6,30.29,SW,215,0.0,0.0,88,0.00,,CLR,0.00,VWS V14.01,2013-04-23 10:28:00,
2013-04-23 03:33:00,27.7,24.6,30.29,SW,215,0.0,0.0,88,0.00,,CLR,0.00,VWS V14.01,2013-04-23 10:33:00,
2013-04-23 03:39:00,27.6,24.5,30.29,SW,215,0.0,0.0,88,0.00,,CLR,0.00,VWS V14.01,2013-04-23 10:39:00,
2013-04-23 03:44:00,27.6,24.5,30.29,SW,215,0.0,0.0,88,0.00,,CLR,0.00,VWS V14.01,2013-04-23 10:44:00,
2013-04-23 03:49:00,27.4,24.3,30.29,SW,215,0.0,0.0,88,0.00,,CLR,0.00,VWS V14.01,2013-04-23 10:49:00,
2013-04-23 03:54:00,27.4,24.3,30.29,SW,215,0.0,0.0,88,0.00,,CLR,0.00,VWS V14.01,2013-04-23 10:54:00,
2013-04-23 03:59:00,27.3,24.2,30.29,SW,215,0.0,0.0,88,0.00,,CLR,0.00,VWS V14.01,2013-04-23 10:59:00,
2013-04-23 04:04:00,27.1,24.0,30.29,SW,215,0.0,0.0,88,0.00,,CLR,0.00,VWS V14.01,2013-04-23 11:04:00,
2013-04-23 04:09:00,27.0,23.9,30.29,SW,215,0.0,0.0,88,0.00,,CLR,0.00,VWS V14.01,2013-04-23 11:09:00,
2013-04-23 04:14:00,26.8,23.7,30.29,SW,215,0.0,0.0,88,0.00,,CLR,0.00,VWS V14.01,2013-04-23 11:14:00,
2013-04-23 04:19:00,26.8,23.7,30.28,SW,215,0.0,0.0,88,0.00,,CLR,0.00,VWS V14.01,2013-04-23 11:19:00,
2013-04-23 04:24:00,26.8,23.7,30.28,SW,215,0.0,0.0,88,0.00,,CLR,0.00,VWS V14.01,2013-04-23 11:24:00,
2013-04-23 04:29:00,27.0,24.2,30.28,SW,215,0.0,0.0,89,0.00,,CLR,0.00,VWS V14.01,2013-04-23 11:29:00,
2013-04-23 04:34:00,27.0,24.2,30.28,SW,215,0.0,0.0,89,0.00,,CLR,0.00,VWS V14.01,2013-04-23 11:34:00,
2013-04-23 04:39:00,27.0,24.2,30.28,SW,215,0.0,0.0,89,0.00,,CLR,0.00,VWS V14.01,2013-04-23 11:39:00,
2013-04-23 04:44:00,27.0,24.2,30.28,SW,215,0.0,0.0,89,0.00,,CLR,0.00,VWS V14.01,2013-04-23 11:44:00,
2013-04-23 04:50:00,26.8,24.0,30.28,SW,215,0.0,0.0,89,0.00,,CLR,0.00,VWS V14.01,2013-04-23 11:50:00,
2013-04-23 04:55:00,26.8,24.0,30.28,SW,215,0.0,0.0,89,0.00,,CLR,0.00,VWS V14.01,2013-04-23 11:55:00,
2013-04-23 05:00:00,26.7,23.9,30.28,SW,215,0.0,0.0,89,0.00,,CLR,0.00,VWS V14.01,2013-04-23 12:00:00,
2013-04-23 05:05:00,26.4,23.6,30.28,SW,215,0.0,0.0,89,0.00,,CLR,0.00,VWS V14.01,2013-04-23 12:05:00,
2013-04-23 05:10:00,26.4,23.6,30.28,SW,215,0.0,0.0,89,0.00,,CLR,0.00,VWS V14.01,2013-04-23 12:10:00,
2013-04-23 05:15:00,26.3,23.5,30.28,SW,215,0.0,0.0,89,0.00,,CLR,0.00,VWS V14.01,2013-04-23 12:15:00,
2013-04-23 05:20:00,26.3,23.5,30.27,SW,215,0.0,0.0,89,0.00,,CLR,0.00,VWS V14.01,2013-04-23 12:20:00,
2013-04-23 05:25:00,26.3,23.5,30.27,SW,215,0.0,0.0,89,0.00,,CLR,0.00,VWS V14.01,2013-04-23 12:25:00,
2013-04-23 05:30:00,26.1,23.3,30.27,SW,215,0.0,0.0,89,0.00,,CLR,0.00,VWS V14.01,2013-04-23 12:30:00,
2013-04-23 05:35:00,26.1,23.6,30.27,SW,215,0.0,0.0,90,0.00,,CLR,0.00,VWS V14.01,2013-04-23 12:35:00,
2013-04-23 05:40:00,26.1,23.6,30.27,SW,215,0.0,0.0,90,0.00,,CLR,0.00,VWS V14.01,2013-04-23 12:40:00,
2013-04-23 05:45:00,26.1,23.6,30.27,SW,215,0.0,0.0,90,0.00,,CLR,0.00,VWS V14.01,2013-04-23 12:45:00,
2013-04-23 05:50:00,26.1,23.6,30.27,SW,215,0.0,0.0,90,0.00,,CLR,0.00,VWS V14.01,2013-04-23 12:50:00,
2013-04-23 05:55:00,26.1,23.6,30.27,SW,215,0.0,0.0,90,0.00,,CLR,0.00,VWS V14.01,2013-04-23 12:55:00,
2013-04-23 06:01:00,26.3,23.8,30.27,SW,215,0.0,0.0,90,0.00,,CLR,0.00,VWS V14.01,2013-04-23 13:01:00,
2013-04-23 06:06:00,26.4,23.9,30.27,SW,215,0.0,0.0,90,0.00,,CLR,0.00,VWS V14.01,2013-04-23 13:06:00,
2013-04-23 06:11:00,26.4,23.9,30.27,SW,215,0.0,0.0,90,0.00,,CLR,0.00,VWS V14.01,2013-04-23 13:11:00,
2013-04-23 06:16:00,26.6,24.1,30.27,SW,215,0.0,0.0,90,0.00,,CLR,0.00,VWS V14.01,2013-04-23 13:16:00,
2013-04-23 06:21:00,26.6,24.1,30.27,SW,215,0.0,0.0,90,0.00,,CLR,0.00,VWS V14.01,2013-04-23 13:21:00,
2013-04-23 06:26:00,26.8,24.3,30.27,SW,215,0.0,0.0,90,0.00,,CLR,0.00,VWS V14.01,2013-04-23 13:26:00,
2013-04-23 06:31:00,27.3,24.8,30.27,SW,215,0.0,0.0,90,0.00,,CLR,0.00,VWS V14.01,2013-04-23 13:31:00,
2013-04-23 06:36:00,27.3,24.8,30.26,SW,215,0.0,0.0,90,0.00,,CLR,0.00,VWS V14.01,2013-04-23 13:36:00,
2013-04-23 06:41:00,27.3,24.8,30.26,SW,215,0.0,0.0,90,0.00,,CLR,0.00,VWS V14.01,2013-04-23 13:41:00,
2013-04-23 06:46:00,28.8,26.2,30.26,SW,215,0.0,0.0,90,0.00,,CLR,0.00,VWS V14.01,2013-04-23 13:46:00,
2013-04-23 06:51:00,29.2,26.6,30.26,SW,215,0.0,0.0,90,0.00,,CLR,0.00,VWS V14.01,2013-04-23 13:51:00,
2013-04-23 06:56:00,29.2,26.6,30.26,SW,215,0.0,0.0,90,0.00,,CLR,0.00,VWS V14.01,2013-04-23 13:56:00,
2013-04-23 07:01:00,30.1,27.0,30.26,SW,215,0.0,0.0,88,0.00,,CLR,0.00,VWS V14.01,2013-04-23 14:01:00,
2013-04-23 07:06:00,30.4,27.3,30.26,SW,215,0.0,0.0,88,0.00,,CLR,0.00,VWS V14.01,2013-04-23 14:06:00,
2013-04-23 07:11:00,30.7,27.6,30.26,SW,215,0.0,0.0,88,0.00,,CLR,0.00,VWS V14.01,2013-04-23 14:11:00,
2013-04-23 07:16:00,31.0,27.9,30.26,ENE,61,0.0,0.0,88,0.00,,CLR,0.00,VWS V14.01,2013-04-23 14:16:00,
2013-04-23 07:21:00,31.4,28.3,30.27,ENE,61,0.0,0.0,88,0.00,,CLR,0.00,VWS V14.01,2013-04-23 14:21:00,
2013-04-23 07:27:00,31.4,27.1,30.27,ENE,61,0.0,0.0,84,0.00,,CLR,0.00,VWS V14.01,2013-04-23 14:27:00,
2013-04-23 07:32:00,32.2,27.9,30.27,ENE,61,0.0,0.0,84,0.00,,CLR,0.00,VWS V14.01,2013-04-23 14:32:00,
2013-04-23 07:37:00,32.5,28.2,30.26,ENE,61,0.0,0.0,84,0.00,,CLR,0.00,VWS V14.01,2013-04-23 14:37:00,
2013-04-23 07:42:00,32.8,27.9,30.26,ENE,61,0.0,0.0,82,0.00,,CLR,0.00,VWS V14.01,2013-04-23 14:42:00,
2013-04-23 07:47:00,33.4,28.5,30.26,ENE,61,0.0,0.0,82,0.00,,CLR,0.00,VWS V14.01,2013-04-23 14:47:00,
2013-04-23 07:52:00,33.7,28.8,30.26,ENE,61,0.0,0.0,82,0.00,,CLR,0.00,VWS V14.01,2013-04-23 14:52:00,
2013-04-23 07:57:00,34.2,29.0,30.26,ENE,61,0.0,1.0,81,0.00,,CLR,0.00,VWS V14.01,2013-04-23 14:57:00,
2013-04-23 08:02:00,34.5,29.0,30.26,ENE,61,0.0,0.0,80,0.00,,CLR,0.00,VWS V14.01,2013-04-23 15:02:00,
2013-04-23 08:07:00,34.7,29.2,30.26,ENE,61,0.0,0.0,80,0.00,,CLR,0.00,VWS V14.01,2013-04-23 15:07:00,
2013-04-23 08:12:00,35.4,29.9,30.26,ENE,61,0.0,0.0,80,0.00,,CLR,0.00,VWS V14.01,2013-04-23 15:12:00,
2013-04-23 08:17:00,35.4,29.9,30.26,ENE,61,0.0,0.0,80,0.00,,CLR,0.00,VWS V14.01,2013-04-23 15:17:00,
2013-04-23 08:22:00,36.6,31.0,30.26,ENE,61,1.0,2.0,80,0.00,,CLR,0.00,VWS V14.01,2013-04-23 15:22:00,
2013-04-23 08:27:00,37.0,30.1,30.26,ENE,61,0.0,0.0,76,0.00,,CLR,0.00,VWS V14.01,2013-04-23 15:27:00,
2013-04-23 08:32:00,37.3,30.4,30.26,ENE,61,0.0,0.0,76,0.00,,CLR,0.00,VWS V14.01,2013-04-23 15:32:00,
2013-04-23 08:37:00,37.6,30.7,30.26,ENE,61,0.0,0.0,76,0.00,,CLR,0.00,VWS V14.01,2013-04-23 15:37:00,
2013-04-23 08:42:00,37.9,31.0,30.26,ENE,61,0.0,0.0,76,0.00,,CLR,0.00,VWS V14.01,2013-04-23 15:42:00,
2013-04-23 08:47:00,38.3,31.4,30.26,ENE,61,2.0,2.0,76,0.00,,CLR,0.00,VWS V14.01,2013-04-23 15:47:00,
2013-04-23 08:52:00,38.9,32.0,30.26,ENE,61,1.0,1.0,76,0.00,,CLR,0.00,VWS V14.01,2013-04-23 15:52:00,
2013-04-23 08:57:00,39.3,32.4,30.26,ENE,61,0.0,0.0,76,0.00,,CLR,0.00,VWS V14.01,2013-04-23 15:57:00,
2013-04-23 09:03:00,39.9,31.6,30.26,ENE,61,0.0,0.0,72,0.00,,BKN110,0.00,VWS V14.01,2013-04-23 16:03:00,
2013-04-23 09:08:00,40.6,32.3,30.26,ENE,61,0.0,0.0,72,0.00,,BKN110,0.00,VWS V14.01,2013-04-23 16:08:00,
2013-04-23 09:13:00,40.9,32.6,30.26,ENE,61,0.0,0.0,72,0.00,,BKN110,0.00,VWS V14.01,2013-04-23 16:13:00,
2013-04-23 09:18:00,41.3,33.0,30.26,ENE,61,0.0,0.0,72,0.00,,BKN110,0.00,VWS V14.01,2013-04-23 16:18:00,
2013-04-23 09:23:00,41.6,33.3,30.26,ENE,61,0.0,0.0,72,0.00,,BKN110,0.00,VWS V14.01,2013-04-23 16:23:00,
2013-04-23 09:28:00,41.9,33.5,30.26,ENE,61,0.0,0.0,72,0.00,,BKN110,0.00,VWS V14.01,2013-04-23 16:28:00,
2013-04-23 09:33:00,42.5,34.1,30.26,ENE,61,0.0,0.0,72,0.00,,BKN110,0.00,VWS V14.01,2013-04-23 16:33:00,
2013-04-23 09:38:00,42.9,34.5,30.26,ENE,61,0.0,0.0,72,0.00,,BKN110,0.00,VWS V14.01,2013-04-23 16:38:00,
2013-04-23 09:43:00,43.5,35.1,30.26,ENE,61,0.0,0.0,72,0.00,,BKN110,0.00,VWS V14.01,2013-04-23 16:43:00,
2013-04-23 09:48:00,43.8,35.4,30.26,ENE,61,0.0,0.0,72,0.00,,BKN110,0.00,VWS V14.01,2013-04-23 16:48:00,
2013-04-23 09:53:00,43.9,35.5,30.26,ENE,61,0.0,0.0,72,0.00,,BKN110,0.00,VWS V14.01,2013-04-23 16:53:00,
2013-04-23 09:59:00,44.1,35.7,30.26,ENE,61,0.0,0.0,72,0.00,,BKN110,0.00,VWS V14.01,2013-04-23 16:59:00,
2013-04-23 10:04:00,44.2,35.8,30.26,ENE,61,0.0,0.0,72,0.00,,SCT110,0.00,VWS V14.01,2013-04-23 17:04:00,
2013-04-23 10:09:00,44.5,36.0,30.26,ENE,61,0.0,0.0,72,0.00,,SCT110,0.00,VWS V14.01,2013-04-23 17:09:00,
2013-04-23 10:14:00,44.5,36.0,30.26,ENE,61,0.0,0.0,72,0.00,,SCT110,0.00,VWS V14.01,2013-04-23 17:14:00,
2013-04-23 10:19:00,44.5,36.0,30.25,ENE,61,0.0,0.0,72,0.00,,SCT110,0.00,VWS V14.01,2013-04-23 17:19:00,
2013-04-23 10:24:00,44.5,36.0,30.25,ENE,61,0.0,0.0,72,0.00,,SCT110,0.00,VWS V14.01,2013-04-23 17:24:00,
2013-04-23 10:29:00,44.5,36.0,30.25,ENE,61,0.0,0.0,72,0.00,,SCT110,0.00,VWS V14.01,2013-04-23 17:29:00,
2013-04-23 10:34:00,46.2,37.7,30.26,ENE,61,0.0,0.0,72,0.00,,SCT110,0.00,VWS V14.01,2013-04-23 17:34:00,
2013-04-23 10:39:00,46.4,37.9,30.26,ENE,61,0.0,0.0,72,0.00,,SCT110,0.00,VWS V14.01,2013-04-23 17:39:00,
2013-04-23 10:44:00,47.1,28.9,30.26,ENE,61,0.0,0.0,49,0.00,,SCT110,0.00,VWS V14.01,2013-04-23 17:44:00,
2013-04-23 10:49:00,47.2,29.0,30.25,ENE,61,0.0,0.0,49,0.00,,SCT110,0.00,VWS V14.01,2013-04-23 17:49:00,
2013-04-23 10:55:00,47.5,29.8,30.25,ENE,61,0.0,0.0,50,0.00,,SCT110,0.00,VWS V14.01,2013-04-23 17:55:00,
2013-04-23 11:00:00,48.0,30.3,30.25,ENE,61,0.0,0.0,50,0.00,,SCT110,0.00,VWS V14.01,2013-04-23 18:00:00,
2013-04-23 11:05:00,48.0,30.3,30.26,ENE,61,0.0,0.0,50,0.00,,BKN110,0.00,VWS V14.01,2013-04-23 18:05:00,
2013-04-23 11:10:00,49.3,31.5,30.26,WNW,302,0.0,0.0,50,0.00,,BKN110,0.00,VWS V14.01,2013-04-23 18:10:00,
2013-04-23 11:15:00,49.5,29.1,30.26,SW,216,0.0,0.0,45,0.00,,BKN110,0.00,VWS V14.01,2013-04-23 18:15:00,
2013-04-23 11:20:00,50.1,29.6,30.25,SSW,203,0.0,1.0,45,0.00,,BKN110,0.00,VWS V14.01,2013-04-23 18:20:00,
2013-04-23 11:25:00,50.1,28.5,30.25,SE,133,0.0,0.0,43,0.00,,BKN110,0.00,VWS V14.01,2013-04-23 18:25:00,
2013-04-23 11:30:00,51.2,30.0,30.25,NNW,335,0.0,0.0,44,0.00,,BKN110,0.00,VWS V14.01,2013-04-23 18:30:00,
2013-04-23 11:35:00,51.4,30.2,30.25,SW,236,0.0,0.0,44,0.00,,BKN110,0.00,VWS V14.01,2013-04-23 18:35:00,
2013-04-23 11:40:00,51.7,30.5,30.25,WNW,284,1.0,2.0,44,0.00,,BKN110,0.00,VWS V14.01,2013-04-23 18:40:00,
2013-04-23 11:45:00,51.7,30.5,30.25,WNW,282,0.0,0.0,44,0.00,,BKN110,0.00,VWS V14.01,2013-04-23 18:45:00,
2013-04-23 11:51:00,51.4,29.7,30.25,WNW,282,0.0,0.0,43,0.00,,BKN110,0.00,VWS V14.01,2013-04-23 18:51:00,
2013-04-23 11:56:00,51.4,29.1,30.25,WNW,287,0.0,0.0,42,0.00,,BKN110,0.00,VWS V14.01,2013-04-23 18:56:00,
2013-04-23 12:01:00,51.4,29.1,30.25,ENE,65,0.0,0.0,42,0.00,,BKN110,0.00,VWS V14.01,2013-04-23 19:01:00,
2013-04-23 12:06:00,52.7,30.3,30.24,ENE,65,0.0,0.0,42,0.00,,SCT110,0.00,VWS V14.01,2013-04-23 19:06:00,
2013-04-23 12:11:00,53.5,31.0,30.24,ENE,65,0.0,0.0,42,0.00,,SCT110,0.00,VWS V14.01,2013-04-23 19:11:00,
2013-04-23 12:16:00,53.3,30.8,30.24,ENE,65,0.0,0.0,42,0.00,,SCT110,0.00,VWS V14.01,2013-04-23 19:16:00,
2013-04-23 12:21:00,53.2,28.9,30.24,West,278,2.0,2.0,39,0.00,,SCT110,0.00,VWS V14.01,2013-04-23 19:21:00,
2013-04-23 12:26:00,53.0,28.7,30.24,West,281,0.0,0.0,39,0.00,,SCT110,0.00,VWS V14.01,2013-04-23 19:26:00,
2013-04-23 12:31:00,53.9,30.8,30.24,WNW,292,0.0,0.0,41,0.00,,SCT110,0.00,VWS V14.01,2013-04-23 19:31:00,
2013-04-23 12:36:00,54.5,28.8,30.23,East,80,0.0,2.0,37,0.00,,SCT110,0.00,VWS V14.01,2013-04-23 19:36:00,
2013-04-23 12:42:00,54.5,30.7,30.23,WNW,288,0.0,1.0,40,0.00,,SCT110,0.00,VWS V14.01,2013-04-23 19:42:00,
2013-04-23 12:47:00,54.6,32.6,30.23,North,357,0.0,0.0,43,0.00,,SCT110,0.00,VWS V14.01,2013-04-23 19:47:00,
2013-04-23 12:52:00,55.1,29.3,30.23,West,274,0.0,1.0,37,0.00,,SCT110,0.00,VWS V14.01,2013-04-23 19:52:00,
2013-04-23 12:57:00,55.2,31.3,30.23,SE,140,0.0,0.0,40,0.00,,SCT110,0.00,VWS V14.01,2013-04-23 19:57:00,
2013-04-23 13:02:00,55.5,31.0,30.23,WNW,284,0.0,0.0,39,0.00,,FEW110,0.00,VWS V14.01,2013-04-23 20:02:00,
2013-04-23 13:07:00,55.5,29.0,30.22,West,277,1.0,1.0,36,0.00,,FEW110,0.00,VWS V14.01,2013-04-23 20:07:00,
2013-04-23 13:12:00,55.7,29.2,30.22,West,277,0.0,0.0,36,0.00,,FEW110,0.00,VWS V14.01,2013-04-23 20:12:00,
2013-04-23 13:17:00,55.5,29.0,30.22,West,281,0.0,0.0,36,0.00,,FEW110,0.00,VWS V14.01,2013-04-23 20:17:00,
2013-04-23 13:22:00,55.8,29.3,30.22,West,281,0.0,0.0,36,0.00,,FEW110,0.00,VWS V14.01,2013-04-23 20:22:00,
2013-04-23 13:27:00,56.3,29.7,30.22,WNW,287,0.0,0.0,36,0.00,,FEW110,0.00,VWS V14.01,2013-04-23 20:27:00,
2013-04-23 13:32:00,56.7,30.1,30.21,East,96,2.0,2.0,36,0.00,,FEW110,0.00,VWS V14.01,2013-04-23 20:32:00,
2013-04-23 13:37:00,56.6,30.0,30.21,WNW,285,0.0,0.0,36,0.00,,FEW110,0.00,VWS V14.01,2013-04-23 20:37:00,
2013-04-23 13:42:00,57.0,30.3,30.21,NW,325,0.0,0.0,36,0.00,,FEW110,0.00,VWS V14.01,2013-04-23 20:42:00,
2013-04-23 13:47:00,57.0,28.9,30.21,West,278,1.0,1.0,34,0.00,,FEW110,0.00,VWS V14.01,2013-04-23 20:47:00,
2013-04-23 13:52:00,57.0,28.9,30.21,WNW,294,0.0,0.0,34,0.00,,FEW110,0.00,VWS V14.01,2013-04-23 20:52:00,
2013-04-23 13:58:00,57.6,29.5,30.21,WNW,294,0.0,1.0,34,0.00,,FEW110,0.00,VWS V14.01,2013-04-23 20:58:00,
2013-04-23 14:03:00,57.7,28.1,30.20,West,281,1.0,1.0,32,0.00,,CLR,0.00,VWS V14.01,2013-04-23 21:03:00,
2013-04-23 14:08:00,57.7,28.1,30.20,West,281,1.0,1.0,32,0.00,,CLR,0.00,VWS V14.01,2013-04-23 21:08:00,
2013-04-23 14:13:00,58.8,29.0,30.20,ESE,103,0.0,0.0,32,0.00,,CLR,0.00,VWS V14.01,2013-04-23 21:13:00,
2013-04-23 14:18:00,59.0,29.2,30.20,East,99,0.0,0.0,32,0.00,,CLR,0.00,VWS V14.01,2013-04-23 21:18:00,
2013-04-23 14:23:00,59.1,29.3,30.20,West,268,0.0,0.0,32,0.00,,CLR,0.00,VWS V14.01,2013-04-23 21:23:00,
2013-04-23 14:28:00,58.5,28.8,30.20,West,277,2.0,2.0,32,0.00,,CLR,0.00,VWS V14.01,2013-04-23 21:28:00,
2013-04-23 14:33:00,58.5,28.8,30.20,WNW,285,2.0,2.0,32,0.00,,CLR,0.00,VWS V14.01,2013-04-23 21:33:00,
2013-04-23 14:38:00,58.5,31.7,30.20,SW,227,0.0,0.0,36,0.00,,CLR,0.00,VWS V14.01,2013-04-23 21:38:00,
2013-04-23 14:43:00,58.5,31.7,30.20,WNW,282,0.0,0.0,36,0.00,,CLR,0.00,VWS V14.01,2013-04-23 21:43:00,
2013-04-23 14:48:00,59.0,32.1,30.20,WNW,289,0.0,0.0,36,0.00,,CLR,0.00,VWS V14.01,2013-04-23 21:48:00,
2013-04-23 14:54:00,59.0,32.1,30.20,WNW,292,0.0,0.0,36,0.00,,CLR,0.00,VWS V14.01,2013-04-23 21:54:00,
2013-04-23 14:59:00,59.0,25.1,30.20,NW,312,0.0,3.0,27,0.00,,CLR,0.00,VWS V14.01,2013-04-23 21:59:00,
2013-04-23 15:04:00,59.3,25.4,30.19,WNW,285,0.0,2.0,27,0.00,,SCT080,0.00,VWS V14.01,2013-04-23 22:04:00,
2013-04-23 15:09:00,59.0,25.1,30.19,WNW,284,0.0,6.0,27,0.00,,SCT080,0.00,VWS V14.01,2013-04-23 22:09:00,
2013-04-23 15:14:00,59.0,25.1,30.19,West,281,3.0,3.0,27,0.00,,SCT080,0.00,VWS V14.01,2013-04-23 22:14:00,
2013-04-23 15:19:00,59.1,25.2,30.19,North,354,2.0,2.0,27,0.00,,SCT080,0.00,VWS V14.01,2013-04-23 22:19:00,
2013-04-23 15:24:00,59.3,25.4,30.19,North,8,0.0,3.0,27,0.00,,SCT080,0.00,VWS V14.01,2013-04-23 22:24:00,
2013-04-23 15:29:00,59.3,23.5,30.19,WNW,296,1.0,2.0,25,0.00,,SCT080,0.00,VWS V14.01,2013-04-23 22:29:00,
2013-04-23 15:34:00,59.6,25.6,30.19,NNW,346,1.0,6.0,27,0.00,,SCT080,0.00,VWS V14.01,2013-04-23 22:34:00,
2013-04-23 15:39:00,59.6,25.6,30.19,NNW,330,0.0,0.0,27,0.00,,SCT080,0.00,VWS V14.01,2013-04-23 22:39:00,
2013-04-23 15:44:00,59.6,25.6,30.19,NW,311,2.0,2.0,27,0.00,,SCT080,0.00,VWS V14.01,2013-04-23 22:44:00,
2013-04-23 15:49:00,59.6,25.6,30.18,WNW,282,0.0,0.0,27,0.00,,SCT080,0.00,VWS V14.01,2013-04-23 22:49:00,
2013-04-23 15:54:00,59.9,25.9,30.18,WNW,291,1.0,1.0,27,0.00,,SCT080,0.00,VWS V14.01,2013-04-23 22:54:00,
2013-04-23 15:59:00,59.6,25.6,30.18,WNW,291,0.0,0.0,27,0.00,,SCT080,0.00,VWS V14.01,2013-04-23 22:59:00,
2013-04-23 16:04:00,59.7,25.7,30.18,WNW,295,1.0,1.0,27,0.00,,SCT080,0.00,VWS V14.01,2013-04-23 23:04:00,
2013-04-23 16:09:00,59.7,25.7,30.18,WNW,295,1.0,1.0,27,0.00,,SCT080,0.00,VWS V14.01,2013-04-23 23:09:00,
2013-04-23 16:14:00,58.6,28.1,30.18,NW,315,0.0,0.0,31,0.00,,SCT080,0.00,VWS V14.01,2013-04-23 23:14:00,
2013-04-23 16:19:00,58.6,28.1,30.18,West,280,1.0,1.0,31,0.00,,SCT080,0.00,VWS V14.01,2013-04-23 23:19:00,
2013-04-23 16:25:00,57.5,27.1,30.18,WNW,294,1.0,2.0,31,0.00,,SCT080,0.00,VWS V14.01,2013-04-23 23:25:00,
2013-04-23 16:30:00,57.5,27.1,30.18,West,274,2.0,2.0,31,0.00,,SCT080,0.00,VWS V14.01,2013-04-23 23:30:00,
2013-04-23 16:35:00,57.5,27.1,30.18,West,274,2.0,2.0,31,0.00,,SCT080,0.00,VWS V14.01,2013-04-23 23:35:00,
2013-04-23 16:40:00,58.5,28.0,30.18,NNW,346,2.0,2.0,31,0.00,,SCT080,0.00,VWS V14.01,2013-04-23 23:40:00,
2013-04-23 16:45:00,58.5,28.0,30.18,West,265,0.0,0.0,31,0.00,,SCT080,0.00,VWS V14.01,2013-04-23 23:45:00,
2013-04-23 16:50:00,59.0,28.4,30.17,North,349,3.0,3.0,31,0.00,,SCT080,0.00,VWS V14.01,2013-04-23 23:50:00,
2013-04-23 16:55:00,59.3,28.7,30.17,West,265,0.0,1.0,31,0.00,,SCT080,0.00,VWS V14.01,2013-04-23 23:55:00,
2013-04-23 17:00:00,59.3,28.7,30.17,SSE,158,0.0,0.0,31,0.00,,SCT080,0.00,VWS V14.01,2013-04-24 00:00:00,
2013-04-23 17:05:00,59.3,28.7,30.18,NE,38,0.0,0.0,31,0.00,,SCT075,0.00,VWS V14.01,2013-04-24 00:05:00,
2013-04-23 17:10:00,59.6,29.0,30.18,West,281,0.0,0.0,31,0.00,,SCT075,0.00,VWS V14.01,2013-04-24 00:10:00,
2013-04-23 17:16:00,59.6,25.6,30.18,WNW,288,0.0,0.0,27,0.00,,SCT075,0.00,VWS V14.01,2013-04-24 00:16:00,
2013-04-23 17:21:00,59.4,25.4,30.17,West,265,2.0,2.0,27,0.00,,SCT075,0.00,VWS V14.01,2013-04-24 00:21:00,
2013-04-23 17:26:00,59.4,26.3,30.17,West,265,0.0,0.0,28,0.00,,SCT075,0.00,VWS V14.01,2013-04-24 00:26:00,
2013-04-23 17:31:00,59.4,26.3,30.17,West,280,2.0,2.0,28,0.00,,SCT075,0.00,VWS V14.01,2013-04-24 00:31:00,
2013-04-23 17:36:00,59.4,25.4,30.17,West,277,1.0,1.0,27,0.00,,SCT075,0.00,VWS V14.01,2013-04-24 00:36:00,
2013-04-23 17:41:00,59.7,25.7,30.17,West,277,0.0,0.0,27,0.00,,SCT075,0.00,VWS V14.01,2013-04-24 00:41:00,
2013-04-23 17:46:00,59.7,25.7,30.17,West,270,0.0,0.0,27,0.00,,SCT075,0.00,VWS V14.01,2013-04-24 00:46:00,
2013-04-23 17:51:00,59.9,25.9,30.17,West,270,0.0,0.0,27,0.00,,SCT075,0.00,VWS V14.01,2013-04-24 00:51:00,
2013-04-23 17:56:00,60.5,26.4,30.17,West,270,0.0,0.0,27,0.00,,SCT075,0.00,VWS V14.01,2013-04-24 00:56:00,
2013-04-23 18:01:00,60.3,26.2,30.17,WNW,284,0.0,0.0,27,0.00,,SCT075,0.00,VWS V14.01,2013-04-24 01:01:00,
2013-04-23 18:06:00,59.9,25.9,30.17,WNW,287,0.0,0.0,27,0.00,,SCT085,0.00,VWS V14.01,2013-04-24 01:06:00,
2013-04-23 18:11:00,59.6,25.6,30.17,WNW,287,1.0,1.0,27,0.00,,SCT085,0.00,VWS V14.01,2013-04-24 01:11:00,
2013-04-23 18:16:00,59.0,25.1,30.17,WNW,287,0.0,1.0,27,0.00,,SCT085,0.00,VWS V14.01,2013-04-24 01:16:00,
2013-04-23 18:21:00,58.6,24.8,30.18,WNW,287,0.0,0.0,27,0.00,,SCT085,0.00,VWS V14.01,2013-04-24 01:21:00,
2013-04-23 18:26:00,58.6,24.8,30.18,WNW,287,0.0,0.0,27,0.00,,SCT085,0.00,VWS V14.01,2013-04-24 01:26:00,
2013-04-23 18:31:00,58.6,24.8,30.18,WNW,287,0.0,0.0,27,0.00,,SCT085,0.00,VWS V14.01,2013-04-24 01:31:00,
2013-04-23 18:36:00,57.5,23.8,30.18,WNW,287,0.0,0.0,27,0.00,,SCT085,0.00,VWS V14.01,2013-04-24 01:36:00,
2013-04-23 18:41:00,57.5,27.1,30.18,WNW,287,0.0,0.0,31,0.00,,SCT085,0.00,VWS V14.01,2013-04-24 01:41:00,
2013-04-23 18:47:00,57.5,27.1,30.18,WNW,287,0.0,0.0,31,0.00,,SCT085,0.00,VWS V14.01,2013-04-24 01:47:00,
2013-04-23 18:52:00,57.0,25.9,30.18,WNW,287,0.0,0.0,30,0.00,,SCT085,0.00,VWS V14.01,2013-04-24 01:52:00,
2013-04-23 18:57:00,57.0,28.9,30.18,WNW,287,0.0,0.0,34,0.00,,SCT085,0.00,VWS V14.01,2013-04-24 01:57:00,
2013-04-23 19:02:00,56.6,28.6,30.18,WNW,287,0.0,0.0,34,0.00,,SCT095,0.00,VWS V14.01,2013-04-24 02:02:00,
2013-04-23 19:07:00,56.4,28.4,30.18,WNW,287,0.0,0.0,34,0.00,,SCT095,0.00,VWS V14.01,2013-04-24 02:07:00,
2013-04-23 19:12:00,55.8,27.9,30.18,WNW,287,0.0,0.0,34,0.00,,SCT095,0.00,VWS V14.01,2013-04-24 02:12:00,
2013-04-23 19:18:00,55.4,27.5,30.17,WNW,287,0.0,0.0,34,0.00,,SCT095,0.00,VWS V14.01,2013-04-24 02:18:00,
2013-04-23 19:23:00,55.2,26.6,30.17,WNW,287,0.0,0.0,33,0.00,,SCT095,0.00,VWS V14.01,2013-04-24 02:23:00,
2013-04-23 19:28:00,55.1,26.5,30.17,WNW,287,0.0,0.0,33,0.00,,SCT095,0.00,VWS V14.01,2013-04-24 02:28:00,
2013-04-23 19:33:00,54.2,25.7,30.17,WNW,287,0.0,0.0,33,0.00,,SCT095,0.00,VWS V14.01,2013-04-24 02:33:00,
2013-04-23 19:38:00,53.3,25.0,30.17,WNW,287,0.0,0.0,33,0.00,,SCT095,0.00,VWS V14.01,2013-04-24 02:38:00,
2013-04-23 19:43:00,53.3,25.0,30.17,WNW,287,0.0,0.0,33,0.00,,SCT095,0.00,VWS V14.01,2013-04-24 02:43:00,
2013-04-23 19:49:00,52.3,24.1,30.18,WNW,287,0.0,0.0,33,0.00,,SCT095,0.00,VWS V14.01,2013-04-24 02:49:00,
2013-04-23 19:54:00,51.4,23.3,30.18,WNW,287,0.0,0.0,33,0.00,,SCT095,0.00,VWS V14.01,2013-04-24 02:54:00,
2013-04-23 19:59:00,51.4,23.3,30.18,WNW,287,0.0,0.0,33,0.00,,SCT095,0.00,VWS V14.01,2013-04-24 02:59:00,
2013-04-23 20:04:00,49.6,21.7,30.18,WNW,287,0.0,0.0,33,0.00,,FEW090,0.00,VWS V14.01,2013-04-24 03:04:00,
2013-04-23 20:09:00,48.7,20.9,30.18,WNW,287,0.0,0.0,33,0.00,,FEW090,0.00,VWS V14.01,2013-04-24 03:09:00,
2013-04-23 20:15:00,47.2,19.6,30.18,WNW,287,0.0,0.0,33,0.00,,FEW090,0.00,VWS V14.01,2013-04-24 03:15:00,
2013-04-23 20:20:00,46.7,19.1,30.18,WNW,287,0.0,0.0,33,0.00,,FEW090,0.00,VWS V14.01,2013-04-24 03:20:00,
2013-04-23 20:25:00,46.2,18.7,30.18,WNW,287,0.0,0.0,33,0.00,,FEW090,0.00,VWS V14.01,2013-04-24 03:25:00,
2013-04-23 20:31:00,46.1,18.6,30.18,WNW,287,0.0,0.0,33,0.00,,FEW090,0.00,VWS V14.01,2013-04-24 03:31:00,
2013-04-23 20:36:00,45.6,18.2,30.19,WNW,287,0.0,0.0,33,0.00,,FEW090,0.00,VWS V14.01,2013-04-24 03:36:00,
2013-04-23 20:42:00,45.6,18.2,30.19,WNW,287,0.0,0.0,33,0.00,,FEW090,0.00,VWS V14.01,2013-04-24 03:42:00,
2013-04-23 20:47:00,45.5,18.1,30.19,WNW,287,0.0,0.0,33,0.00,,FEW090,0.00,VWS V14.01,2013-04-24 03:47:00,
2013-04-23 20:52:00,45.2,17.8,30.19,WNW,287,0.0,0.0,33,0.00,,FEW090,0.00,VWS V14.01,2013-04-24 03:52:00,
2013-04-23 20:57:00,44.5,17.2,30.19,WNW,287,0.0,0.0,33,0.00,,FEW090,0.00,VWS V14.01,2013-04-24 03:57:00,
2013-04-23 21:01:00,44.1,32.7,30.19,WNW,287,0.0,0.0,64,0.00,,CLR,0.00,VWS V14.01,2013-04-24 04:01:00,
2013-04-23 21:02:00,43.9,33.3,30.19,WNW,287,0.0,0.0,66,0.00,,CLR,0.00,VWS V14.01,2013-04-24 04:02:00,
2013-04-23 21:07:00,43.1,32.5,30.19,WNW,287,0.0,0.0,66,0.00,,CLR,0.00,VWS V14.01,2013-04-24 04:07:00,
2013-04-23 21:12:00,42.5,32.3,30.19,WNW,287,0.0,0.0,67,0.00,,CLR,0.00,VWS V14.01,2013-04-24 04:12:00,
2013-04-23 21:17:00,42.5,32.7,30.19,WNW,287,0.0,0.0,68,0.00,,CLR,0.00,VWS V14.01,2013-04-24 04:17:00,
2013-04-23 21:22:00,41.6,32.2,30.19,WNW,287,0.0,0.0,69,0.00,,CLR,0.00,VWS V14.01,2013-04-24 04:22:00,
2013-04-23 21:27:00,41.3,31.9,30.19,WNW,287,0.0,0.0,69,0.00,,CLR,0.00,VWS V14.01,2013-04-24 04:27:00,
2013-04-23 21:32:00,41.1,32.1,30.19,WNW,287,0.0,0.0,70,0.00,,CLR,0.00,VWS V14.01,2013-04-24 04:32:00,
2013-04-23 21:37:00,41.1,32.1,30.19,WNW,287,0.0,0.0,70,0.00,,CLR,0.00,VWS V14.01,2013-04-24 04:37:00,
2013-04-23 21:42:00,40.5,31.9,30.19,WNW,287,0.0,0.0,71,0.00,,CLR,0.00,VWS V14.01,2013-04-24 04:42:00,
2013-04-23 21:47:00,40.2,31.6,30.19,WNW,287,0.0,0.0,71,0.00,,CLR,0.00,VWS V14.01,2013-04-24 04:47:00,
2013-04-23 21:52:00,40.2,31.6,30.20,WNW,287,0.0,0.0,71,0.00,,CLR,0.00,VWS V14.01,2013-04-24 04:52:00,
2013-04-23 21:57:00,39.5,30.9,30.20,WNW,287,0.0,0.0,71,0.00,,CLR,0.00,VWS V14.01,2013-04-24 04:57:00,
2013-04-23 22:02:00,39.2,30.6,30.20,WNW,287,0.0,0.0,71,0.00,,CLR,0.00,VWS V14.01,2013-04-24 05:02:00,
2013-04-23 22:07:00,38.9,30.3,30.20,WNW,287,0.0,0.0,71,0.00,,CLR,0.00,VWS V14.01,2013-04-24 05:07:00,
2013-04-23 22:12:00,38.5,29.9,30.20,WNW,287,0.0,0.0,71,0.00,,CLR,0.00,VWS V14.01,2013-04-24 05:12:00,
2013-04-23 22:17:00,38.3,29.7,30.20,WNW,287,0.0,0.0,71,0.00,,CLR,0.00,VWS V14.01,2013-04-24 05:17:00,
2013-04-23 22:22:00,38.2,29.6,30.20,WNW,287,0.0,0.0,71,0.00,,CLR,0.00,VWS V14.01,2013-04-24 05:22:00,
2013-04-23 22:27:00,37.8,29.3,30.20,WNW,287,0.0,0.0,71,0.00,,CLR,0.00,VWS V14.01,2013-04-24 05:27:00,
2013-04-23 22:32:00,37.5,29.0,30.20,WNW,287,0.0,0.0,71,0.00,,CLR,0.00,VWS V14.01,2013-04-24 05:32:00,
2013-04-23 22:37:00,37.2,31.0,30.20,WNW,287,0.0,0.0,78,0.00,,CLR,0.00,VWS V14.01,2013-04-24 05:37:00,
2013-04-23 22:42:00,37.2,31.3,30.20,WNW,287,0.0,0.0,79,0.00,,CLR,0.00,VWS V14.01,2013-04-24 05:42:00,
2013-04-23 22:47:00,36.8,30.9,30.20,WNW,287,0.0,0.0,79,0.00,,CLR,0.00,VWS V14.01,2013-04-24 05:47:00,
2013-04-23 22:52:00,36.5,30.6,30.20,WNW,287,0.0,0.0,79,0.00,,CLR,0.00,VWS V14.01,2013-04-24 05:52:00,
2013-04-23 22:57:00,36.3,30.4,30.20,WNW,287,0.0,0.0,79,0.00,,CLR,0.00,VWS V14.01,2013-04-24 05:57:00,
2013-04-23 23:02:00,36.0,30.1,30.20,WNW,287,0.0,0.0,79,0.00,,CLR,0.00,VWS V14.01,2013-04-24 06:02:00,
2013-04-23 23:07:00,35.7,30.1,30.20,WNW,287,0.0,0.0,80,0.00,,CLR,0.00,VWS V14.01,2013-04-24 06:07:00,
2013-04-23 23:13:00,35.6,30.0,30.20,WNW,287,0.0,0.0,80,0.00,,CLR,0.00,VWS V14.01,2013-04-24 06:13:00,
2013-04-23 23:18:00,35.3,30.1,30.21,WNW,287,0.0,0.0,81,0.00,,CLR,0.00,VWS V14.01,2013-04-24 06:18:00,
2013-04-23 23:23:00,35.0,29.8,30.21,WNW,287,0.0,0.0,81,0.00,,CLR,0.00,VWS V14.01,2013-04-24 06:23:00,
2013-04-23 23:28:00,35.0,29.8,30.21,WNW,287,0.0,0.0,81,0.00,,CLR,0.00,VWS V14.01,2013-04-24 06:28:00,
2013-04-23 23:33:00,34.8,30.2,30.21,WNW,287,0.0,0.0,83,0.00,,CLR,0.00,VWS V14.01,2013-04-24 06:33:00,
2013-04-23 23:38:00,34.5,29.9,30.21,WNW,287,0.0,0.0,83,0.00,,CLR,0.00,VWS V14.01,2013-04-24 06:38:00,
2013-04-23 23:43:00,34.4,29.8,30.21,WNW,287,0.0,0.0,83,0.00,,CLR,0.00,VWS V14.01,2013-04-24 06:43:00,
2013-04-23 23:48:00,34.2,29.6,30.21,WNW,287,0.0,0.0,83,0.00,,CLR,0.00,VWS V14.01,2013-04-24 06:48:00,
2013-04-23 23:53:00,34.1,29.5,30.21,WNW,287,0.0,0.0,83,0.00,,CLR,0.00,VWS V14.01,2013-04-24 06:53:00,
2013-04-23 23:58:00,33.9,29.3,30.21,WNW,287,0.0,0.0,83,0.00,,CLR,0.00,VWS V14.01,2013-04-24 06:58:00,